Time;durP1;ratioP1;P1;durP2;ratioP2;P2;SDS_P1;SDS_P2;PMS_P1;PMS_P2;Temp;Humidity;BMP_temperature;BMP_pressure;BME280_temperature;BME280_humidity;BME280_pressure;Samples;Min_cycle;Max_cycle;Signal;HPM_P1;HPM_P2
2021/01/19 00:02:19;;;;;;;;;;;22.70;86.40;;;;;;5026069;28;19942;-86
2021/01/19 00:04:52;;;;;;;;;;;22.70;85.40;;;;;;5028566;28;19921;-86
2021/01/19 00:07:24;;;;;;;;;;;22.60;86.20;;;;;;5030371;28;19956;-86
2021/01/19 00:10:12;;;;;;;;;;;22.50;85.50;;;;;;5028437;28;20564;-87
2021/01/19 00:12:40;;;;;;;;;;;22.50;86.10;;;;;;5029223;28;19917;-86
2021/01/19 00:15:08;;;;;;;;;;;22.60;85.00;;;;;;5029329;28;19992;-87
2021/01/19 00:17:38;;;;;;;;;;;22.60;84.10;;;;;;5041949;27;20332;-86
2021/01/19 00:20:15;;;;;;;;;;;22.60;84.50;;;;;;5024720;28;19963;-86
2021/01/19 00:22:42;;;;;;;;;;;22.60;84.40;;;;;;5045342;28;19920;-87
2021/01/19 00:25:12;;;;;;;;;;;22.70;84.10;;;;;;5047986;28;19920;-88
2021/01/19 00:27:48;;;;;;;;;;;22.80;83.20;;;;;;5039957;27;19961;-86
2021/01/19 00:30:15;;;;;;;;;;;22.80;83.00;;;;;;5030441;28;19914;-86
2021/01/19 00:32:45;;;;;;;;;;;22.80;83.70;;;;;;5055006;28;19968;-86
2021/01/19 00:35:12;;;;;;;;;;;22.70;82.80;;;;;;5037736;28;19913;-87
2021/01/19 00:37:59;;;;;;;;;;;22.60;82.00;;;;;;5043302;28;19932;-87
2021/01/19 00:40:32;;;;;;;;;;;22.40;81.00;;;;;;5036280;28;19957;-86
2021/01/19 00:42:59;;;;;;;;;;;22.60;82.50;;;;;;5057120;28;19912;-87
2021/01/19 00:45:25;;;;;;;;;;;22.70;81.70;;;;;;5041869;27;19920;-87
2021/01/19 00:48:01;;;;;;;;;;;22.80;80.80;;;;;;5040529;28;19978;-87
2021/01/19 00:50:31;;;;;;;;;;;22.80;80.90;;;;;;5043022;28;19914;-86
2021/01/19 00:52:58;;;;;;;;;;;23.00;81.30;;;;;;5042857;28;19914;-84
2021/01/19 00:55:34;;;;;;;;;;;23.00;80.10;;;;;;5031559;28;20000;-86
2021/01/19 00:58:17;;;;;;;;;;;;;;;;;;;;;
2021/01/19 01:00:47;;;;;;;;;;;23.60;78.90;;;;;;5013287;28;20356;-86
2021/01/19 01:03:14;;;;;;;;;;;23.70;79.30;;;;;;5009419;28;20318;-86
2021/01/19 01:05:54;;;;;;;;;;;23.50;78.70;;;;;;5045246;28;19997;-87
2021/01/19 01:08:40;;;;;;;;;;;23.40;79.20;;;;;;5033005;28;19966;-85
2021/01/19 01:11:07;;;;;;;;;;;23.30;79.30;;;;;;5034251;28;20346;-86
2021/01/19 01:13:35;;;;;;;;;;;23.50;78.40;;;;;;5029235;28;20008;-85
2021/01/19 01:16:10;;;;;;;;;;;23.40;78.10;;;;;;5030090;28;20263;-86
2021/01/19 01:18:36;;;;;;;;;;;23.10;77.80;;;;;;5044171;28;19921;-86
2021/01/19 01:21:19;;;;;;;;;;;23.20;79.00;;;;;;5029959;28;20343;-85
2021/01/19 01:23:45;;;;;;;;;;;23.40;79.00;;;;;;5029874;28;19909;-89
2021/01/19 01:26:25;;;;;;;;;;;23.70;79.10;;;;;;5062867;28;19935;-86
2021/01/19 01:28:51;;;;;;;;;;;23.70;78.40;;;;;;5044568;28;19966;-90
2021/01/19 01:31:21;;;;;;;;;;;23.50;79.90;;;;;;5055588;27;19925;-86
2021/01/19 01:33:48;;;;;;;;;;;23.50;80.60;;;;;;5045580;28;19914;-85
2021/01/19 01:36:16;;;;;;;;;;;23.50;80.50;;;;;;5028599;28;19913;-87
2021/01/19 01:38:43;;;;;;;;;;;23.50;81.00;;;;;;5029401;28;19922;-85
2021/01/19 01:41:19;;;;;;;;;;;23.40;79.10;;;;;;5056300;27;19913;-83
2021/01/19 01:43:47;;;;;;;;;;;23.20;80.50;;;;;;5033660;28;19927;-85
2021/01/19 01:46:24;;;;;;;;;;;23.00;81.10;;;;;;5033984;28;19913;-87
2021/01/19 01:48:51;;;;;;;;;;;22.90;81.50;;;;;;5030707;28;19921;-87
2021/01/19 01:51:17;;;;;;;;;;;22.80;82.30;;;;;;5031508;28;19963;-86
2021/01/19 01:53:44;;;;;;;;;;;22.70;81.50;;;;;;5031969;28;19909;-85
2021/01/19 01:56:15;;;;;;;;;;;22.70;81.60;;;;;;5060319;28;20054;-85
2021/01/19 01:58:42;;;;;;;;;;;22.70;82.40;;;;;;5029258;28;19932;-87
2021/01/19 02:01:09;;;;;;;;;;;22.80;82.90;;;;;;5031413;28;19970;-86
2021/01/19 02:03:35;;;;;;;;;;;22.80;83.10;;;;;;5031140;28;20306;-86
2021/01/19 02:06:02;;;;;;;;;;;22.70;83.90;;;;;;5059289;27;20383;-86
2021/01/19 02:08:53;;;;;;;;;;;22.60;83.50;;;;;;5031540;28;19928;-85
2021/01/19 02:11:30;;;;;;;;;;;22.60;83.40;;;;;;5022110;28;19944;-85
2021/01/19 02:13:57;;;;;;;;;;;22.40;82.70;;;;;;5051379;28;20376;-85
2021/01/19 02:16:23;;;;;;;;;;;22.40;83.40;;;;;;5029886;27;20415;-87
2021/01/19 02:18:53;;;;;;;;;;;22.40;83.00;;;;;;5031499;28;19924;-83
2021/01/19 02:21:38;;;;;;;;;;;22.20;83.60;;;;;;5032877;28;20590;-89
2021/01/19 02:24:25;;;;;;;;;;;22.20;84.60;;;;;;5036828;27;20005;-88
2021/01/19 02:26:58;;;;;;;;;;;22.30;84.50;;;;;;5002779;28;20360;-88
2021/01/19 02:29:30;;;;;;;;;;;22.30;82.60;;;;;;5032233;28;19916;-86
2021/01/19 02:31:57;;;;;;;;;;;22.20;82.40;;;;;;5013939;28;19918;-85
2021/01/19 02:34:36;;;;;;;;;;;22.10;82.90;;;;;;5013168;28;19909;-87
2021/01/19 02:37:14;;;;;;;;;;;22.10;83.10;;;;;;5013501;28;20000;-88
2021/01/19 02:39:44;;;;;;;;;;;22.00;83.90;;;;;;5028603;28;19917;-85
2021/01/19 02:42:12;;;;;;;;;;;21.90;85.30;;;;;;5031914;28;19909;-86
2021/01/19 02:44:41;;;;;;;;;;;21.80;85.20;;;;;;5031997;28;19951;-87
2021/01/19 02:47:09;;;;;;;;;;;22.00;84.70;;;;;;5031449;28;19936;-90
2021/01/19 02:49:36;;;;;;;;;;;22.10;85.40;;;;;;5032572;28;19948;-84
2021/01/19 02:52:03;;;;;;;;;;;22.10;85.30;;;;;;5032654;28;19973;-86
2021/01/19 02:54:39;;;;;;;;;;;21.90;85.80;;;;;;5033624;28;19913;-85
2021/01/19 02:57:18;;;;;;;;;;;21.80;86.70;;;;;;5031651;28;19958;-87
2021/01/19 03:00:01;;;;;;;;;;;21.80;87.00;;;;;;5033378;28;19913;-86
2021/01/19 03:02:33;;;;;;;;;;;21.70;87.30;;;;;;5014853;28;19963;-86
2021/01/19 03:05:00;;;;;;;;;;;21.70;87.00;;;;;;5026359;28;19999;-86
2021/01/19 03:07:28;;;;;;;;;;;21.40;87.20;;;;;;5036083;28;20016;-86
2021/01/19 03:09:58;;;;;;;;;;;21.40;87.90;;;;;;5068584;28;19909;-86
2021/01/19 03:12:25;;;;;;;;;;;21.30;88.40;;;;;;5067969;28;19909;-86
2021/01/19 03:14:53;;;;;;;;;;;21.40;88.70;;;;;;5069111;27;19913;-86
2021/01/19 03:17:20;;;;;;;;;;;21.30;88.80;;;;;;5036716;28;19913;-86
2021/01/19 03:19:48;;;;;;;;;;;21.30;88.40;;;;;;5051044;28;19897;-86
2021/01/19 03:22:15;;;;;;;;;;;21.40;88.40;;;;;;5046876;28;19913;-85
2021/01/19 03:24:42;;;;;;;;;;;21.30;87.10;;;;;;5032911;28;19962;-86
2021/01/19 03:27:09;;;;;;;;;;;21.40;87.60;;;;;;5097736;27;19909;-86
2021/01/19 03:29:36;;;;;;;;;;;21.50;86.60;;;;;;5033189;28;19910;-86
2021/01/19 03:32:06;;;;;;;;;;;21.50;86.00;;;;;;5084206;27;19922;-87
2021/01/19 03:34:36;;;;;;;;;;;21.50;85.70;;;;;;5136594;27;19907;-84
2021/01/19 03:37:03;;;;;;;;;;;21.40;85.60;;;;;;5137237;27;19916;-84
2021/01/19 03:39:31;;;;;;;;;;;21.50;85.10;;;;;;5129387;27;19907;-86
2021/01/19 03:41:58;;;;;;;;;;;21.40;84.60;;;;;;5031554;28;20043;-86
2021/01/19 03:44:24;;;;;;;;;;;21.40;85.10;;;;;;5031525;28;20410;-86
2021/01/19 03:46:54;;;;;;;;;;;21.30;85.40;;;;;;5031827;28;20016;-88
2021/01/19 03:49:20;;;;;;;;;;;21.40;85.00;;;;;;5031383;28;19909;-84
2021/01/19 03:51:47;;;;;;;;;;;21.40;84.60;;;;;;5053014;27;20359;-84
2021/01/19 03:54:15;;;;;;;;;;;21.30;84.90;;;;;;5029695;28;19916;-81
2021/01/19 03:56:42;;;;;;;;;;;21.20;85.40;;;;;;5029734;28;19921;-82
2021/01/19 03:59:09;;;;;;;;;;;21.20;85.50;;;;;;5029378;28;20375;-83
2021/01/19 04:01:40;;;;;;;;;;;21.30;84.70;;;;;;5030395;28;19909;-83
2021/01/19 04:04:06;;;;;;;;;;;21.40;84.10;;;;;;5031023;28;19910;-81
2021/01/19 04:06:33;;;;;;;;;;;21.40;84.20;;;;;;5030500;28;19966;-82
2021/01/19 04:09:01;;;;;;;;;;;21.20;85.10;;;;;;5031194;28;19909;-81
2021/01/19 04:11:28;;;;;;;;;;;21.20;85.60;;;;;;5030551;28;19909;-81
2021/01/19 04:13:55;;;;;;;;;;;21.30;85.00;;;;;;5029583;28;20377;-82
2021/01/19 04:16:22;;;;;;;;;;;21.20;84.20;;;;;;5031409;28;19914;-85
2021/01/19 04:18:48;;;;;;;;;;;21.10;84.40;;;;;;5087988;27;20258;-83
2021/01/19 04:21:15;;;;;;;;;;;21.20;84.40;;;;;;5022469;28;19913;-82
2021/01/19 04:23:42;;;;;;;;;;;21.30;84.10;;;;;;5030487;28;20006;-81
2021/01/19 04:26:08;;;;;;;;;;;21.30;82.90;;;;;;5030535;28;20376;-82
2021/01/19 04:28:35;;;;;;;;;;;21.30;83.70;;;;;;5030810;28;19935;-80
2021/01/19 04:31:02;;;;;;;;;;;21.30;83.50;;;;;;5030522;28;19920;-83
2021/01/19 04:33:28;;;;;;;;;;;21.40;83.40;;;;;;5048646;28;20004;-80
2021/01/19 04:35:55;;;;;;;;;;;21.40;83.40;;;;;;5038506;28;19957;-84
2021/01/19 04:38:22;;;;;;;;;;;21.50;83.00;;;;;;5046789;28;19921;-85
2021/01/19 04:40:49;;;;;;;;;;;21.60;83.10;;;;;;5050283;28;20414;-81
2021/01/19 04:46:13;;;;;;;;;;;21.80;82.30;;;;;;5051055;28;19944;-79
2021/01/19 04:48:42;;;;;;;;;;;21.80;82.10;;;;;;5052171;28;19916;-80
2021/01/19 04:51:16;;;;;;;;;;;21.70;81.60;;;;;;5037946;28;19909;-83
2021/01/19 04:53:46;;;;;;;;;;;21.70;83.10;;;;;;5052021;27;19932;-83
2021/01/19 04:56:18;;;;;;;;;;;21.70;82.60;;;;;;5010758;28;19958;-84
2021/01/19 04:58:47;;;;;;;;;;;21.60;82.60;;;;;;5010911;28;20287;-85
2021/01/19 05:01:21;;;;;;;;;;;21.60;83.10;;;;;;5011187;28;19914;-86
2021/01/19 05:03:57;;;;;;;;;;;21.60;82.30;;;;;;5011277;28;19916;-83
2021/01/19 05:06:37;;;;;;;;;;;21.50;82.40;;;;;;5035999;28;19921;-83
2021/01/19 05:09:10;;;;;;;;;;;21.50;82.90;;;;;;5044205;28;19924;-84
2021/01/19 05:12:06;;;;;;;;;;;21.50;83.60;;;;;;5030570;28;19909;-85
2021/01/19 05:14:38;;;;;;;;;;;21.60;84.50;;;;;;5027624;28;19992;-86
2021/01/19 05:17:06;;;;;;;;;;;21.70;83.70;;;;;;5033701;28;19959;-85
2021/01/19 05:19:32;;;;;;;;;;;21.70;83.50;;;;;;5033722;28;20003;-85
2021/01/19 05:21:59;;;;;;;;;;;21.70;83.10;;;;;;5052572;28;19953;-83
2021/01/19 05:24:26;;;;;;;;;;;21.70;82.90;;;;;;5052999;28;19909;-85
2021/01/19 05:26:55;;;;;;;;;;;21.70;83.30;;;;;;5053701;28;19912;-86
2021/01/19 05:29:23;;;;;;;;;;;21.70;82.70;;;;;;5076142;28;19920;-85
2021/01/19 05:31:52;;;;;;;;;;;21.50;82.60;;;;;;5062088;27;20483;-85
2021/01/19 05:34:19;;;;;;;;;;;21.40;82.30;;;;;;5046930;28;19914;-82
2021/01/19 05:36:49;;;;;;;;;;;21.40;82.40;;;;;;5033409;28;19959;-82
2021/01/19 05:39:17;;;;;;;;;;;21.40;82.80;;;;;;5033437;28;20633;-84
2021/01/19 05:42:02;;;;;;;;;;;21.50;82.90;;;;;;5033428;28;19955;-83
2021/01/19 05:44:30;;;;;;;;;;;21.40;82.50;;;;;;5033710;28;19952;-87
2021/01/19 05:47:03;;;;;;;;;;;21.40;82.90;;;;;;5033720;28;19919;-87
2021/01/19 05:49:40;;;;;;;;;;;21.40;81.50;;;;;;5045487;28;19913;-82
2021/01/19 05:52:08;;;;;;;;;;;21.40;80.80;;;;;;5049925;28;20253;-81
2021/01/19 05:54:36;;;;;;;;;;;21.30;80.00;;;;;;5030890;28;19978;-85
2021/01/19 05:57:04;;;;;;;;;;;21.30;80.30;;;;;;5058609;27;19975;-84
2021/01/19 05:59:38;;;;;;;;;;;21.40;80.80;;;;;;5135426;27;19916;-86
2021/01/19 06:02:14;;;;;;;;;;;21.40;81.50;;;;;;5134906;27;20281;-82
2021/01/19 06:04:45;;;;;;;;;;;21.50;81.80;;;;;;5065162;27;19934;-84
2021/01/19 06:07:12;;;;;;;;;;;21.50;81.80;;;;;;5046662;27;19920;-86
2021/01/19 06:10:07;;;;;;;;;;;21.50;81.90;;;;;;5050456;28;19913;-84
2021/01/19 06:12:37;;;;;;;;;;;21.50;81.40;;;;;;5015185;28;19928;-87
2021/01/19 06:15:04;;;;;;;;;;;21.60;80.70;;;;;;5011352;28;19921;-87
2021/01/19 06:17:30;;;;;;;;;;;21.60;81.40;;;;;;5011139;28;20459;-85
2021/01/19 06:20:02;;;;;;;;;;;21.60;80.70;;;;;;5030090;28;19917;-87
2021/01/19 06:22:34;;;;;;;;;;;21.60;81.50;;;;;;5031727;28;19910;-89
2021/01/19 06:25:03;;;;;;;;;;;21.40;82.20;;;;;;5030422;28;19912;-87
2021/01/19 06:27:37;;;;;;;;;;;21.40;81.90;;;;;;5029835;28;19919;-85
2021/01/19 06:30:08;;;;;;;;;;;21.40;82.50;;;;;;5033349;28;19917;-84
2021/01/19 06:32:45;;;;;;;;;;;21.30;82.30;;;;;;5034950;28;19910;-86
2021/01/19 06:35:22;;;;;;;;;;;21.30;82.50;;;;;;5038202;27;19917;-85
2021/01/19 06:37:50;;;;;;;;;;;21.30;82.20;;;;;;5077784;27;20408;-85
2021/01/19 06:40:19;;;;;;;;;;;21.30;82.60;;;;;;5050020;27;19957;-87
2021/01/19 06:42:56;;;;;;;;;;;21.30;83.00;;;;;;5050746;28;20423;-88
2021/01/19 06:45:24;;;;;;;;;;;21.30;82.90;;;;;;5049422;28;20375;-86
2021/01/19 06:47:53;;;;;;;;;;;21.20;83.40;;;;;;5038383;28;20383;-85
2021/01/19 06:50:20;;;;;;;;;;;21.20;83.80;;;;;;5030182;28;19956;-83
2021/01/19 06:53:07;;;;;;;;;;;21.20;84.00;;;;;;5031683;27;19956;-82
2021/01/19 06:55:52;;;;;;;;;;;21.10;83.60;;;;;;5026256;28;19965;-84
2021/01/19 06:58:37;;;;;;;;;;;21.10;83.70;;;;;;5033038;28;19927;-83
2021/01/19 07:01:11;;;;;;;;;;;21.10;83.50;;;;;;5024847;28;19924;-85
2021/01/19 07:03:46;;;;;;;;;;;21.20;83.10;;;;;;5033307;27;19917;-83
2021/01/19 07:06:14;;;;;;;;;;;21.20;83.20;;;;;;5052802;27;19971;-83
2021/01/19 07:09:06;;;;;;;;;;;21.20;83.40;;;;;;5060496;28;19924;-84
2021/01/19 07:11:44;;;;;;;;;;;21.10;83.50;;;;;;5028861;28;19923;-88
2021/01/19 07:14:34;;;;;;;;;;;21.10;83.70;;;;;;5029382;28;19991;-83
2021/01/19 07:17:13;;;;;;;;;;;21.20;84.00;;;;;;5119544;27;19964;-85
2021/01/19 07:19:44;;;;;;;;;;;21.20;83.10;;;;;;5029950;28;20340;-83
2021/01/19 07:22:19;;;;;;;;;;;21.20;83.20;;;;;;5043277;28;19901;-84
2021/01/19 07:24:48;;;;;;;;;;;21.30;83.50;;;;;;5051775;28;19965;-85
2021/01/19 07:27:18;;;;;;;;;;;21.20;83.30;;;;;;5048918;28;19909;-83
2021/01/19 07:29:45;;;;;;;;;;;21.20;82.80;;;;;;5029703;28;19920;-85
2021/01/19 07:32:13;;;;;;;;;;;21.20;83.10;;;;;;5029075;28;19938;-85
2021/01/19 07:34:41;;;;;;;;;;;21.10;83.50;;;;;;5027576;28;19909;-85
2021/01/19 07:37:08;;;;;;;;;;;21.20;83.70;;;;;;5037788;28;19919;-84
2021/01/19 07:39:35;;;;;;;;;;;21.10;83.60;;;;;;5046573;28;20072;-85
2021/01/19 07:42:09;;;;;;;;;;;21.10;83.40;;;;;;5073303;28;19917;-85
2021/01/19 07:44:54;;;;;;;;;;;21.10;83.30;;;;;;5028593;28;19913;-85
2021/01/19 07:47:20;;;;;;;;;;;21.00;83.50;;;;;;5018592;28;19947;-84
2021/01/19 07:49:47;;;;;;;;;;;21.00;85.20;;;;;;5044050;28;19967;-84
2021/01/19 07:52:15;;;;;;;;;;;21.00;86.70;;;;;;5037682;28;20035;-84
2021/01/19 07:54:42;;;;;;;;;;;20.90;86.90;;;;;;5038463;28;19983;-81
2021/01/19 07:57:13;;;;;;;;;;;20.90;87.30;;;;;;5048268;28;19935;-84
2021/01/19 07:59:40;;;;;;;;;;;21.00;87.00;;;;;;5032202;27;19921;-83
2021/01/19 08:02:07;;;;;;;;;;;21.00;87.20;;;;;;5027596;28;19920;-84
2021/01/19 08:04:36;;;;;;;;;;;20.90;87.20;;;;;;5029698;28;19910;-85
2021/01/19 08:07:11;;;;;;;;;;;20.70;88.60;;;;;;5011529;28;19917;-86
2021/01/19 08:09:38;;;;;;;;;;;20.70;89.70;;;;;;5038477;28;19956;-86
2021/01/19 08:12:09;;;;;;;;;;;20.60;90.10;;;;;;5032966;28;19917;-83
2021/01/19 08:14:39;;;;;;;;;;;20.60;90.20;;;;;;5050799;28;20010;-85
2021/01/19 08:17:11;;;;;;;;;;;20.50;90.20;;;;;;5046302;28;19921;-87
2021/01/19 08:19:41;;;;;;;;;;;20.50;89.20;;;;;;5043667;28;19965;-87
2021/01/19 08:22:09;;;;;;;;;;;20.60;89.20;;;;;;5070788;27;19918;-88
2021/01/19 08:24:38;;;;;;;;;;;20.60;89.10;;;;;;5056701;27;20380;-87
2021/01/19 08:27:05;;;;;;;;;;;20.60;88.80;;;;;;5026785;28;19980;-86
2021/01/19 08:41:16;;;;;;;;;;;20.60;87.90;;;;;;5110362;27;20291;-80
2021/01/19 08:43:52;;;;;;;;;;;20.40;88.40;;;;;;5105952;28;20350;-80
2021/01/19 08:46:19;;;;;;;;;;;20.40;89.60;;;;;;5099824;28;19916;-80
2021/01/19 08:48:46;;;;;;;;;;;20.40;89.70;;;;;;5110350;28;19920;-81
2021/01/19 08:51:22;;;;;;;;;;;20.30;91.00;;;;;;5110432;28;19958;-78
2021/01/19 08:53:49;;;;;;;;;;;20.10;90.80;;;;;;5109980;28;19912;-77
2021/01/19 08:56:16;;;;;;;;;;;20.00;91.00;;;;;;5109053;28;20007;-78
2021/01/19 08:58:43;;;;;;;;;;;20.00;90.50;;;;;;5107828;28;19965;-80
2021/01/19 09:01:13;;;;;;;;;;;20.00;90.00;;;;;;5100283;28;20243;-77
2021/01/19 09:03:42;;;;;;;;;;;20.10;89.90;;;;;;5098215;28;19912;-78
2021/01/19 09:06:09;;;;;;;;;;;20.20;89.40;;;;;;5103933;28;19913;-78
2021/01/19 09:08:38;;;;;;;;;;;20.30;88.80;;;;;;5108382;28;19923;-80
2021/01/19 09:11:14;;;;;;;;;;;20.40;88.90;;;;;;5105959;28;20285;-78
2021/01/19 09:13:44;;;;;;;;;;;20.50;88.20;;;;;;5108704;28;20376;-79
2021/01/19 09:16:22;;;;;;;;;;;20.50;88.20;;;;;;5110242;28;19914;-78
2021/01/19 09:19:01;;;;;;;;;;;20.50;88.60;;;;;;5113859;28;19912;-79
2021/01/19 09:21:28;;;;;;;;;;;20.30;92.00;;;;;;5110833;28;20263;-80
2021/01/19 09:24:13;;;;;;;;;;;19.80;94.20;;;;;;5108397;28;20350;-80
2021/01/19 09:27:13;;;;;;;;;;;19.60;96.60;;;;;;5104226;28;20479;-78
2021/01/19 09:29:34;;;;;;;;;;;19.30;97.20;;;;;;5106664;28;20419;-79
2021/01/19 09:32:01;;;;;;;;;;;18.90;97.80;;;;;;5102073;28;19912;-80
2021/01/19 09:34:28;;;;;;;;;;;18.90;98.70;;;;;;5106395;28;19965;-82
2021/01/19 09:36:55;;;;;;;;;;;18.80;97.10;;;;;;5102190;28;19915;-79
2021/01/19 09:39:42;;;;;;;;;;;;;;;;;;;;;
2021/01/19 09:42:12;;;;;;;;;;;18.90;96.00;;;;;;5093440;28;19942;-79
2021/01/19 09:44:41;;;;;;;;;;;18.90;96.90;;;;;;5091827;28;20520;-82
2021/01/19 09:47:09;;;;;;;;;;;18.80;97.60;;;;;;5093050;28;20045;-77
2021/01/19 09:49:37;;;;;;;;;;;18.70;96.80;;;;;;5092187;28;20699;-78
2021/01/19 09:52:16;;;;;;;;;;;18.80;96.70;;;;;;5091926;28;20002;-78
2021/01/19 09:54:42;;;;;;;;;;;18.70;96.90;;;;;;5093282;28;20279;-76
2021/01/19 09:57:09;;;;;;;;;;;18.90;95.20;;;;;;5094319;28;19912;-78
2021/01/19 09:59:36;;;;;;;;;;;19.00;95.10;;;;;;5093907;28;20328;-77
2021/01/19 10:02:03;;;;;;;;;;;19.10;94.80;;;;;;5092910;28;19908;-78
2021/01/19 10:04:31;;;;;;;;;;;19.20;94.70;;;;;;5095548;28;19908;-77
2021/01/19 10:07:05;;;;;;;;;;;19.30;93.80;;;;;;5095201;28;19918;-77
2021/01/19 10:09:35;;;;;;;;;;;19.40;93.60;;;;;;5094926;28;19967;-78
2021/01/19 10:12:03;;;;;;;;;;;19.40;93.60;;;;;;5095228;28;19915;-77
2021/01/19 10:14:31;;;;;;;;;;;19.50;93.30;;;;;;5092399;28;19912;-79
2021/01/19 10:16:58;;;;;;;;;;;19.60;93.60;;;;;;5093373;28;20413;-78
2021/01/19 10:19:29;;;;;;;;;;;19.60;93.60;;;;;;5092255;28;19908;-78
2021/01/19 10:21:57;;;;;;;;;;;19.60;93.40;;;;;;5094773;28;19912;-79
2021/01/19 10:24:28;;;;;;;;;;;19.60;93.80;;;;;;5096103;28;19958;-78
2021/01/19 10:26:58;;;;;;;;;;;19.60;93.60;;;;;;5094610;28;20354;-77
2021/01/19 10:29:25;;;;;;;;;;;19.60;93.90;;;;;;5092188;28;20400;-75
2021/01/19 10:31:55;;;;;;;;;;;19.70;94.10;;;;;;5081669;28;19981;-76
2021/01/19 10:34:22;;;;;;;;;;;19.70;93.90;;;;;;5098394;28;20297;-75
2021/01/19 10:36:52;;;;;;;;;;;19.70;94.30;;;;;;5095881;28;19973;-76
2021/01/19 10:39:22;;;;;;;;;;;19.70;93.80;;;;;;5090810;28;19923;-74
2021/01/19 10:41:50;;;;;;;;;;;19.80;93.40;;;;;;5091308;28;19912;-74
2021/01/19 10:44:16;;;;;;;;;;;19.80;93.50;;;;;;5093711;28;19923;-77
2021/01/19 10:46:44;;;;;;;;;;;19.80;93.50;;;;;;5090495;28;19922;-79
2021/01/19 10:49:12;;;;;;;;;;;19.90;93.20;;;;;;5090746;28;20297;-79
2021/01/19 10:51:41;;;;;;;;;;;19.80;92.90;;;;;;5092360;28;19908;-79
2021/01/19 10:54:16;;;;;;;;;;;19.80;93.00;;;;;;5090306;28;19912;-78
2021/01/19 10:56:44;;;;;;;;;;;19.80;92.90;;;;;;5093964;28;20042;-80
2021/01/19 10:59:12;;;;;;;;;;;19.90;93.70;;;;;;5086019;28;19973;-78
2021/01/19 11:01:39;;;;;;;;;;;19.90;92.60;;;;;;5093804;28;19912;-82
2021/01/19 11:04:06;;;;;;;;;;;19.90;92.90;;;;;;5090565;28;19951;-75
2021/01/19 11:06:34;;;;;;;;;;;19.90;92.20;;;;;;5091561;28;20011;-77
2021/01/19 11:09:02;;;;;;;;;;;20.00;92.00;;;;;;5087044;28;19924;-80
2021/01/19 11:11:28;;;;;;;;;;;20.00;91.40;;;;;;5086421;28;20030;-81
2021/01/19 11:14:02;;;;;;;;;;;20.00;91.10;;;;;;5089640;28;19912;-76
2021/01/19 11:16:29;;;;;;;;;;;20.10;91.30;;;;;;5086156;28;19920;-79
2021/01/19 11:18:58;;;;;;;;;;;20.00;91.80;;;;;;5077712;28;20429;-80
2021/01/19 11:21:25;;;;;;;;;;;20.00;92.30;;;;;;5089556;28;19923;-78
2021/01/19 11:23:52;;;;;;;;;;;20.00;92.40;;;;;;5091423;28;20027;-76
2021/01/19 11:26:19;;;;;;;;;;;20.00;92.20;;;;;;5092645;28;19915;-78
2021/01/19 11:28:46;;;;;;;;;;;19.80;92.40;;;;;;5100145;28;19926;-76
2021/01/19 11:31:12;;;;;;;;;;;19.90;92.40;;;;;;5094679;28;19921;-78
2021/01/19 11:33:39;;;;;;;;;;;19.90;92.40;;;;;;5091509;28;20017;-77
2021/01/19 11:36:06;;;;;;;;;;;19.90;92.50;;;;;;5087116;28;19916;-77
2021/01/19 11:38:33;;;;;;;;;;;19.80;92.70;;;;;;5088883;28;19920;-78
2021/01/19 11:41:00;;;;;;;;;;;19.80;92.90;;;;;;5091987;28;19939;-83
2021/01/19 11:43:27;;;;;;;;;;;19.80;92.90;;;;;;5090064;28;19919;-84
2021/01/19 11:45:54;;;;;;;;;;;19.90;93.10;;;;;;5086386;28;19919;-79
2021/01/19 11:48:21;;;;;;;;;;;19.90;93.20;;;;;;5086249;28;19984;-82
2021/01/19 11:50:48;;;;;;;;;;;19.90;93.40;;;;;;5087255;28;19923;-77
2021/01/19 11:53:14;;;;;;;;;;;19.90;93.40;;;;;;5082159;28;19912;-81
2021/01/19 11:55:44;;;;;;;;;;;19.80;93.50;;;;;;5087522;28;19920;-78
2021/01/19 11:58:11;;;;;;;;;;;19.80;93.20;;;;;;5084240;28;19912;-79
2021/01/19 12:00:38;;;;;;;;;;;19.80;93.20;;;;;;5087602;28;20404;-77
2021/01/19 12:03:05;;;;;;;;;;;19.80;93.20;;;;;;5094337;28;19932;-81
2021/01/19 12:05:31;;;;;;;;;;;19.80;93.50;;;;;;5111685;27;20341;-75
2021/01/19 12:07:59;;;;;;;;;;;19.70;93.70;;;;;;5089880;28;19920;-78
2021/01/19 12:10:26;;;;;;;;;;;19.60;94.00;;;;;;5085093;28;19939;-76
2021/01/19 12:12:52;;;;;;;;;;;19.50;94.20;;;;;;5090215;28;19922;-76
2021/01/19 12:15:20;;;;;;;;;;;19.50;94.30;;;;;;5083297;28;19955;-84
2021/01/19 12:17:47;;;;;;;;;;;19.40;96.50;;;;;;5091581;28;19916;-78
2021/01/19 12:20:14;;;;;;;;;;;19.20;98.90;;;;;;5085812;28;19916;-79
2021/01/19 12:22:40;;;;;;;;;;;19.00;99.90;;;;;;5081222;28;20011;-76
2021/01/19 12:25:07;;;;;;;;;;;18.80;99.90;;;;;;5083260;28;19916;-76
2021/01/19 12:27:34;;;;;;;;;;;18.70;99.90;;;;;;5084038;28;20344;-77
2021/01/19 12:30:00;;;;;;;;;;;18.60;99.90;;;;;;5084275;28;19931;-77
2021/01/19 12:32:27;;;;;;;;;;;18.60;99.90;;;;;;5078554;28;19930;-77
2021/01/19 12:34:54;;;;;;;;;;;18.50;99.90;;;;;;5084741;28;19916;-80
2021/01/19 12:37:21;;;;;;;;;;;18.40;99.90;;;;;;5081178;28;19978;-80
2021/01/19 12:39:49;;;;;;;;;;;18.30;99.90;;;;;;5076702;28;19935;-80
2021/01/19 12:42:16;;;;;;;;;;;18.50;99.90;;;;;;5082860;28;19919;-80
2021/01/19 12:44:42;;;;;;;;;;;18.40;99.90;;;;;;5084183;28;19920;-76
2021/01/19 12:47:09;;;;;;;;;;;18.50;99.90;;;;;;5089249;28;19991;-78
2021/01/19 12:49:36;;;;;;;;;;;18.40;99.90;;;;;;5084354;28;19928;-77
2021/01/19 12:52:07;;;;;;;;;;;18.40;99.90;;;;;;5088307;28;20074;-77
2021/01/19 12:54:35;;;;;;;;;;;18.30;99.90;;;;;;5082954;28;20350;-77
2021/01/19 12:57:02;;;;;;;;;;;18.20;99.90;;;;;;5090664;28;19908;-77
2021/01/19 12:59:28;;;;;;;;;;;18.10;99.90;;;;;;5088423;28;19923;-77
2021/01/19 13:02:02;;;;;;;;;;;18.20;99.90;;;;;;5075030;28;19912;-76
2021/01/19 13:04:29;;;;;;;;;;;18.10;99.90;;;;;;5074173;28;19956;-76
2021/01/19 13:06:55;;;;;;;;;;;17.80;99.90;;;;;;5072158;28;19912;-80
2021/01/19 13:09:22;;;;;;;;;;;17.60;99.90;;;;;;5085706;28;19967;-80
2021/01/19 13:11:49;;;;;;;;;;;17.50;99.90;;;;;;5090317;28;19916;-76
2021/01/19 13:14:15;;;;;;;;;;;17.40;99.90;;;;;;5090279;28;19908;-77
2021/01/19 13:16:42;;;;;;;;;;;17.40;99.90;;;;;;5092819;28;20303;-80
2021/01/19 13:19:09;;;;;;;;;;;17.40;99.90;;;;;;5094254;28;19912;-78
2021/01/19 13:21:35;;;;;;;;;;;17.40;99.90;;;;;;5094408;28;19908;-80
2021/01/19 13:24:02;;;;;;;;;;;17.40;99.90;;;;;;5094184;28;19955;-77
2021/01/19 13:26:29;;;;;;;;;;;17.40;99.90;;;;;;5093951;28;20427;-76
2021/01/19 13:28:55;;;;;;;;;;;17.40;99.90;;;;;;5093668;28;20018;-76
2021/01/19 13:31:23;;;;;;;;;;;17.40;99.90;;;;;;5094103;28;19961;-77
2021/01/19 13:33:49;;;;;;;;;;;17.30;99.90;;;;;;5092313;28;19912;-78
2021/01/19 13:36:16;;;;;;;;;;;17.30;99.90;;;;;;5094203;28;19969;-78
2021/01/19 13:38:43;;;;;;;;;;;17.30;99.90;;;;;;5093999;28;19931;-79
2021/01/19 13:41:14;;;;;;;;;;;17.30;99.90;;;;;;5093816;28;19926;-79
2021/01/19 13:43:40;;;;;;;;;;;17.10;99.90;;;;;;5081681;28;19915;-79
2021/01/19 13:46:07;;;;;;;;;;;17.10;99.90;;;;;;5093473;28;19908;-81
2021/01/19 13:48:34;;;;;;;;;;;17.00;99.90;;;;;;5093542;28;19948;-76
2021/01/19 13:51:00;;;;;;;;;;;17.00;99.90;;;;;;5092168;28;19913;-77
2021/01/19 13:53:27;;;;;;;;;;;17.00;99.90;;;;;;5093551;28;19908;-76
2021/01/19 13:55:54;;;;;;;;;;;17.00;99.90;;;;;;5093364;28;19956;-76
2021/01/19 13:58:20;;;;;;;;;;;16.90;99.90;;;;;;5093468;28;19916;-80
2021/01/19 14:00:47;;;;;;;;;;;17.00;99.90;;;;;;5088658;28;19916;-75
2021/01/19 14:03:14;;;;;;;;;;;16.90;99.90;;;;;;5092902;28;19912;-79
2021/01/19 14:05:40;;;;;;;;;;;16.90;99.90;;;;;;5078254;28;19911;-77
2021/01/19 14:08:11;;;;;;;;;;;16.90;99.90;;;;;;5093065;28;19908;-78
2021/01/19 14:10:38;;;;;;;;;;;16.90;99.90;;;;;;5078846;28;20400;-77
2021/01/19 14:13:05;;;;;;;;;;;16.90;99.90;;;;;;5090740;28;19954;-78
2021/01/19 14:15:32;;;;;;;;;;;17.00;99.90;;;;;;5093483;28;19912;-77
2021/01/19 14:17:59;;;;;;;;;;;17.00;99.90;;;;;;5093152;28;19912;-77
2021/01/19 14:20:25;;;;;;;;;;;17.00;99.90;;;;;;5091042;28;19916;-78
2021/01/19 14:22:52;;;;;;;;;;;17.00;99.90;;;;;;5093135;28;20379;-77
2021/01/19 14:25:19;;;;;;;;;;;17.00;99.90;;;;;;5093164;28;19916;-77
2021/01/19 14:27:46;;;;;;;;;;;17.10;99.90;;;;;;5092907;28;19912;-78
2021/01/19 14:30:13;;;;;;;;;;;17.20;99.90;;;;;;5092887;28;19939;-77
2021/01/19 14:32:43;;;;;;;;;;;17.30;99.90;;;;;;5089342;28;20670;-80
2021/01/19 14:35:10;;;;;;;;;;;17.50;99.90;;;;;;5083616;28;19923;-79
2021/01/19 14:37:37;;;;;;;;;;;17.60;99.90;;;;;;5090968;28;19949;-79
2021/01/19 14:40:04;;;;;;;;;;;17.70;99.90;;;;;;5092918;28;19931;-76
2021/01/19 14:42:31;;;;;;;;;;;17.70;99.90;;;;;;5091371;28;19916;-78
2021/01/19 14:44:58;;;;;;;;;;;17.70;99.90;;;;;;5092536;28;20364;-77
2021/01/19 14:47:25;;;;;;;;;;;17.70;99.90;;;;;;5090897;28;19908;-77
2021/01/19 14:49:51;;;;;;;;;;;17.80;99.90;;;;;;5092563;28;19936;-78